sensor_id;sensor_type;location;lat;lon;timestamp;P1;durP1;ratioP1;P2;durP2;ratioP2
49626;SDS011;35527;54.616;39.786;2023-08-31T00:02:31;13.68;;;10.07;;
49626;SDS011;35527;54.616;39.786;2023-08-31T00:05:38;13.23;;;9.55;;
49626;SDS011;35527;54.616;39.786;2023-08-31T00:08:43;15.38;;;9.90;;
49626;SDS011;35527;54.616;39.786;2023-08-31T00:11:49;12.75;;;10.35;;
49626;SDS011;35527;54.616;39.786;2023-08-31T00:14:53;12.05;;;9.30;;
49626;SDS011;35527;54.616;39.786;2023-08-31T00:17:56;13.55;;;9.60;;
49626;SDS011;35527;54.616;39.786;2023-08-31T00:20:58;13.50;;;9.63;;
49626;SDS011;35527;54.616;39.786;2023-08-31T00:24:04;13.23;;;9.52;;
49626;SDS011;35527;54.616;39.786;2023-08-31T00:27:09;14.20;;;9.38;;
49626;SDS011;35527;54.616;39.786;2023-08-31T00:30:13;14.50;;;9.40;;
49626;SDS011;35527;54.616;39.786;2023-08-31T00:33:16;13.52;;;9.82;;
49626;SDS011;35527;54.616;39.786;2023-08-31T00:36:20;13.18;;;9.82;;
49626;SDS011;35527;54.616;39.786;2023-08-31T00:39:25;11.63;;;9.57;;
49626;SDS011;35527;54.616;39.786;2023-08-31T00:42:34;12.32;;;9.40;;
49626;SDS011;35527;54.616;39.786;2023-08-31T00:45:37;13.32;;;9.30;;
49626;SDS011;35527;54.616;39.786;2023-08-31T00:48:45;13.10;;;8.32;;
49626;SDS011;35527;54.616;39.786;2023-08-31T00:51:48;11.20;;;7.72;;
49626;SDS011;35527;54.616;39.786;2023-08-31T00:54:52;13.82;;;8.40;;
49626;SDS011;35527;54.616;39.786;2023-08-31T00:57:58;12.15;;;8.48;;
49626;SDS011;35527;54.616;39.786;2023-08-31T01:01:10;11.98;;;8.50;;
49626;SDS011;35527;54.616;39.786;2023-08-31T01:04:33;11.23;;;8.68;;
49626;SDS011;35527;54.616;39.786;2023-08-31T01:11:34;12.05;;;8.40;;
49626;SDS011;35527;54.616;39.786;2023-08-31T01:14:56;14.02;;;9.00;;
49626;SDS011;35527;54.616;39.786;2023-08-31T01:18:04;11.13;;;8.18;;
49626;SDS011;35527;54.616;39.786;2023-08-31T01:24:36;11.13;;;8.60;;
49626;SDS011;35527;54.616;39.786;2023-08-31T01:27:40;12.75;;;8.98;;
49626;SDS011;35527;54.616;39.786;2023-08-31T01:30:44;11.77;;;8.02;;
49626;SDS011;35527;54.616;39.786;2023-08-31T01:33:47;9.98;;;7.38;;
49626;SDS011;35527;54.616;39.786;2023-08-31T01:36:55;11.90;;;7.55;;
49626;SDS011;35527;54.616;39.786;2023-08-31T01:40:03;10.10;;;7.32;;
49626;SDS011;35527;54.616;39.786;2023-08-31T01:43:13;12.43;;;7.90;;
49626;SDS011;35527;54.616;39.786;2023-08-31T01:46:19;13.55;;;7.60;;
49626;SDS011;35527;54.616;39.786;2023-08-31T01:49:28;11.88;;;7.88;;
49626;SDS011;35527;54.616;39.786;2023-08-31T01:52:39;11.75;;;8.05;;
49626;SDS011;35527;54.616;39.786;2023-08-31T01:55:43;13.20;;;7.80;;
49626;SDS011;35527;54.616;39.786;2023-08-31T01:58:48;12.93;;;8.07;;
49626;SDS011;35527;54.616;39.786;2023-08-31T02:01:51;14.50;;;8.20;;
49626;SDS011;35527;54.616;39.786;2023-08-31T02:04:56;10.30;;;7.03;;
49626;SDS011;35527;54.616;39.786;2023-08-31T02:07:59;9.23;;;6.40;;
49626;SDS011;35527;54.616;39.786;2023-08-31T02:11:05;10.68;;;7.07;;
49626;SDS011;35527;54.616;39.786;2023-08-31T02:14:08;11.68;;;7.10;;
49626;SDS011;35527;54.616;39.786;2023-08-31T02:17:11;9.82;;;7.03;;
49626;SDS011;35527;54.616;39.786;2023-08-31T02:20:14;9.68;;;7.47;;
49626;SDS011;35527;54.616;39.786;2023-08-31T02:23:16;12.90;;;8.70;;
49626;SDS011;35527;54.616;39.786;2023-08-31T02:26:21;11.80;;;7.78;;
49626;SDS011;35527;54.616;39.786;2023-08-31T02:29:26;10.30;;;7.53;;
49626;SDS011;35527;54.616;39.786;2023-08-31T02:35:34;9.85;;;7.32;;
49626;SDS011;35527;54.616;39.786;2023-08-31T02:38:43;10.95;;;8.07;;
49626;SDS011;35527;54.616;39.786;2023-08-31T02:41:47;11.95;;;8.30;;
49626;SDS011;35527;54.616;39.786;2023-08-31T02:44:52;11.35;;;7.80;;
49626;SDS011;35527;54.616;39.786;2023-08-31T02:47:58;10.05;;;7.32;;
49626;SDS011;35527;54.616;39.786;2023-08-31T02:51:05;10.93;;;7.32;;
49626;SDS011;35527;54.616;39.786;2023-08-31T02:54:07;11.17;;;7.87;;
49626;SDS011;35527;54.616;39.786;2023-08-31T02:57:10;10.20;;;7.10;;
49626;SDS011;35527;54.616;39.786;2023-08-31T03:00:13;10.90;;;7.25;;
49626;SDS011;35527;54.616;39.786;2023-08-31T03:03:17;12.48;;;7.28;;
49626;SDS011;35527;54.616;39.786;2023-08-31T03:06:20;8.93;;;6.20;;
49626;SDS011;35527;54.616;39.786;2023-08-31T03:09:23;10.23;;;6.53;;
49626;SDS011;35527;54.616;39.786;2023-08-31T03:12:26;11.25;;;6.88;;
49626;SDS011;35527;54.616;39.786;2023-08-31T03:15:34;11.80;;;6.40;;
49626;SDS011;35527;54.616;39.786;2023-08-31T03:18:37;9.95;;;5.90;;
49626;SDS011;35527;54.616;39.786;2023-08-31T03:21:41;12.43;;;5.88;;
49626;SDS011;35527;54.616;39.786;2023-08-31T03:24:45;8.25;;;5.53;;
49626;SDS011;35527;54.616;39.786;2023-08-31T03:27:51;9.88;;;5.80;;
49626;SDS011;35527;54.616;39.786;2023-08-31T03:30:55;8.20;;;5.72;;
49626;SDS011;35527;54.616;39.786;2023-08-31T03:33:59;9.23;;;5.65;;
49626;SDS011;35527;54.616;39.786;2023-08-31T03:37:06;10.05;;;5.90;;
49626;SDS011;35527;54.616;39.786;2023-08-31T03:40:14;10.65;;;5.30;;
49626;SDS011;35527;54.616;39.786;2023-08-31T03:43:20;9.77;;;5.57;;
49626;SDS011;35527;54.616;39.786;2023-08-31T03:46:22;11.35;;;5.35;;
49626;SDS011;35527;54.616;39.786;2023-08-31T03:49:29;9.32;;;5.10;;
49626;SDS011;35527;54.616;39.786;2023-08-31T03:52:38;8.65;;;4.70;;
49626;SDS011;35527;54.616;39.786;2023-08-31T03:55:41;10.52;;;4.75;;
49626;SDS011;35527;54.616;39.786;2023-08-31T03:58:44;10.50;;;4.95;;
49626;SDS011;35527;54.616;39.786;2023-08-31T04:01:48;9.55;;;5.28;;
49626;SDS011;35527;54.616;39.786;2023-08-31T04:04:52;9.20;;;4.80;;
49626;SDS011;35527;54.616;39.786;2023-08-31T04:07:56;8.77;;;4.95;;
49626;SDS011;35527;54.616;39.786;2023-08-31T04:10:58;7.75;;;4.22;;
49626;SDS011;35527;54.616;39.786;2023-08-31T04:14:02;8.13;;;4.13;;
49626;SDS011;35527;54.616;39.786;2023-08-31T04:17:07;7.20;;;4.63;;
49626;SDS011;35527;54.616;39.786;2023-08-31T04:20:13;8.85;;;4.30;;
49626;SDS011;35527;54.616;39.786;2023-08-31T04:23:16;9.05;;;4.10;;
49626;SDS011;35527;54.616;39.786;2023-08-31T04:26:20;8.48;;;4.13;;
49626;SDS011;35527;54.616;39.786;2023-08-31T04:29:23;9.80;;;4.10;;
49626;SDS011;35527;54.616;39.786;2023-08-31T04:32:26;7.97;;;3.75;;
49626;SDS011;35527;54.616;39.786;2023-08-31T04:35:29;6.47;;;3.65;;
49626;SDS011;35527;54.616;39.786;2023-08-31T04:38:37;8.33;;;4.30;;
49626;SDS011;35527;54.616;39.786;2023-08-31T04:41:43;11.07;;;4.32;;
49626;SDS011;35527;54.616;39.786;2023-08-31T04:44:45;9.32;;;3.97;;
49626;SDS011;35527;54.616;39.786;2023-08-31T04:47:48;6.93;;;3.45;;
49626;SDS011;35527;54.616;39.786;2023-08-31T04:50:55;6.97;;;3.53;;
49626;SDS011;35527;54.616;39.786;2023-08-31T04:54:03;8.20;;;3.50;;
49626;SDS011;35527;54.616;39.786;2023-08-31T04:57:06;6.72;;;3.65;;
49626;SDS011;35527;54.616;39.786;2023-08-31T05:00:09;7.20;;;3.33;;
49626;SDS011;35527;54.616;39.786;2023-08-31T05:03:14;7.63;;;3.17;;
49626;SDS011;35527;54.616;39.786;2023-08-31T05:06:17;6.60;;;3.50;;
49626;SDS011;35527;54.616;39.786;2023-08-31T05:09:24;6.80;;;3.22;;
49626;SDS011;35527;54.616;39.786;2023-08-31T05:12:29;6.60;;;3.55;;
49626;SDS011;35527;54.616;39.786;2023-08-31T05:15:32;6.38;;;3.38;;
49626;SDS011;35527;54.616;39.786;2023-08-31T05:18:39;6.93;;;3.40;;
49626;SDS011;35527;54.616;39.786;2023-08-31T05:21:44;6.03;;;3.30;;
49626;SDS011;35527;54.616;39.786;2023-08-31T05:24:46;6.53;;;3.00;;
49626;SDS011;35527;54.616;39.786;2023-08-31T05:27:52;8.23;;;3.20;;
49626;SDS011;35527;54.616;39.786;2023-08-31T05:30:56;10.60;;;3.37;;
49626;SDS011;35527;54.616;39.786;2023-08-31T05:34:01;10.95;;;3.20;;
49626;SDS011;35527;54.616;39.786;2023-08-31T05:37:04;9.40;;;3.20;;
49626;SDS011;35527;54.616;39.786;2023-08-31T05:40:07;7.50;;;2.60;;
49626;SDS011;35527;54.616;39.786;2023-08-31T05:43:15;8.02;;;3.13;;
49626;SDS011;35527;54.616;39.786;2023-08-31T05:46:18;9.48;;;3.30;;
49626;SDS011;35527;54.616;39.786;2023-08-31T05:49:22;6.00;;;3.20;;
49626;SDS011;35527;54.616;39.786;2023-08-31T05:52:26;7.00;;;3.00;;
49626;SDS011;35527;54.616;39.786;2023-08-31T05:55:33;7.65;;;3.10;;
49626;SDS011;35527;54.616;39.786;2023-08-31T05:58:35;6.00;;;2.67;;
49626;SDS011;35527;54.616;39.786;2023-08-31T06:01:40;5.93;;;2.63;;
49626;SDS011;35527;54.616;39.786;2023-08-31T06:04:43;5.30;;;2.80;;
49626;SDS011;35527;54.616;39.786;2023-08-31T06:07:47;8.20;;;2.85;;
49626;SDS011;35527;54.616;39.786;2023-08-31T06:10:50;7.93;;;2.80;;
49626;SDS011;35527;54.616;39.786;2023-08-31T06:13:53;6.85;;;2.80;;
49626;SDS011;35527;54.616;39.786;2023-08-31T06:16:56;5.25;;;2.70;;
49626;SDS011;35527;54.616;39.786;2023-08-31T06:20:01;5.07;;;2.45;;
49626;SDS011;35527;54.616;39.786;2023-08-31T06:23:05;8.10;;;2.78;;
49626;SDS011;35527;54.616;39.786;2023-08-31T06:26:09;6.23;;;2.50;;
49626;SDS011;35527;54.616;39.786;2023-08-31T06:29:12;7.45;;;2.80;;
49626;SDS011;35527;54.616;39.786;2023-08-31T06:32:19;5.57;;;2.42;;
49626;SDS011;35527;54.616;39.786;2023-08-31T06:35:21;4.00;;;2.20;;
49626;SDS011;35527;54.616;39.786;2023-08-31T06:38:25;6.23;;;2.60;;
49626;SDS011;35527;54.616;39.786;2023-08-31T06:41:29;6.20;;;2.58;;
49626;SDS011;35527;54.616;39.786;2023-08-31T06:44:33;4.80;;;2.20;;
49626;SDS011;35527;54.616;39.786;2023-08-31T06:47:37;4.95;;;2.20;;
49626;SDS011;35527;54.616;39.786;2023-08-31T06:50:40;5.75;;;2.30;;
49626;SDS011;35527;54.616;39.786;2023-08-31T06:53:47;5.30;;;2.50;;
49626;SDS011;35527;54.616;39.786;2023-08-31T06:56:53;4.82;;;2.30;;
49626;SDS011;35527;54.616;39.786;2023-08-31T06:59:56;4.85;;;2.40;;
49626;SDS011;35527;54.616;39.786;2023-08-31T07:02:59;6.13;;;2.47;;
49626;SDS011;35527;54.616;39.786;2023-08-31T07:06:04;7.68;;;2.53;;
49626;SDS011;35527;54.616;39.786;2023-08-31T07:09:08;5.53;;;2.67;;
49626;SDS011;35527;54.616;39.786;2023-08-31T07:12:14;4.75;;;2.50;;
49626;SDS011;35527;54.616;39.786;2023-08-31T07:15:17;5.45;;;2.30;;
49626;SDS011;35527;54.616;39.786;2023-08-31T07:18:20;6.00;;;2.28;;
49626;SDS011;35527;54.616;39.786;2023-08-31T07:21:26;5.78;;;2.53;;
49626;SDS011;35527;54.616;39.786;2023-08-31T07:24:31;4.90;;;2.55;;
49626;SDS011;35527;54.616;39.786;2023-08-31T07:27:34;10.10;;;2.75;;
49626;SDS011;35527;54.616;39.786;2023-08-31T07:30:38;7.20;;;2.65;;
49626;SDS011;35527;54.616;39.786;2023-08-31T07:33:41;7.60;;;2.80;;
49626;SDS011;35527;54.616;39.786;2023-08-31T07:36:45;6.53;;;2.60;;
49626;SDS011;35527;54.616;39.786;2023-08-31T07:39:49;8.93;;;3.05;;
49626;SDS011;35527;54.616;39.786;2023-08-31T07:43:00;5.70;;;2.67;;
49626;SDS011;35527;54.616;39.786;2023-08-31T07:46:04;8.37;;;2.90;;
49626;SDS011;35527;54.616;39.786;2023-08-31T07:49:08;6.43;;;2.95;;
49626;SDS011;35527;54.616;39.786;2023-08-31T07:52:11;7.97;;;3.22;;
49626;SDS011;35527;54.616;39.786;2023-08-31T07:55:16;5.88;;;2.90;;
49626;SDS011;35527;54.616;39.786;2023-08-31T07:58:22;9.00;;;3.70;;
49626;SDS011;35527;54.616;39.786;2023-08-31T08:01:27;11.07;;;3.35;;
49626;SDS011;35527;54.616;39.786;2023-08-31T08:04:30;5.70;;;2.90;;
49626;SDS011;35527;54.616;39.786;2023-08-31T08:07:34;7.25;;;2.85;;
49626;SDS011;35527;54.616;39.786;2023-08-31T08:10:40;7.20;;;2.45;;
49626;SDS011;35527;54.616;39.786;2023-08-31T08:13:43;4.97;;;2.53;;
49626;SDS011;35527;54.616;39.786;2023-08-31T08:16:47;6.38;;;2.63;;
49626;SDS011;35527;54.616;39.786;2023-08-31T08:19:52;5.75;;;3.00;;
49626;SDS011;35527;54.616;39.786;2023-08-31T08:22:55;9.05;;;2.97;;
49626;SDS011;35527;54.616;39.786;2023-08-31T08:26:00;6.13;;;2.90;;
49626;SDS011;35527;54.616;39.786;2023-08-31T08:29:04;5.93;;;3.08;;
49626;SDS011;35527;54.616;39.786;2023-08-31T08:32:08;7.18;;;3.13;;
49626;SDS011;35527;54.616;39.786;2023-08-31T08:35:16;5.40;;;3.00;;
49626;SDS011;35527;54.616;39.786;2023-08-31T08:38:20;6.72;;;3.00;;
49626;SDS011;35527;54.616;39.786;2023-08-31T08:41:25;7.40;;;2.70;;
49626;SDS011;35527;54.616;39.786;2023-08-31T08:44:32;5.32;;;2.85;;
49626;SDS011;35527;54.616;39.786;2023-08-31T08:47:39;6.15;;;2.70;;
49626;SDS011;35527;54.616;39.786;2023-08-31T08:50:43;7.85;;;2.85;;
49626;SDS011;35527;54.616;39.786;2023-08-31T08:53:50;5.55;;;2.83;;
49626;SDS011;35527;54.616;39.786;2023-08-31T08:56:56;5.55;;;2.90;;
49626;SDS011;35527;54.616;39.786;2023-08-31T09:00:01;6.32;;;3.20;;
49626;SDS011;35527;54.616;39.786;2023-08-31T09:03:06;7.35;;;3.67;;
49626;SDS011;35527;54.616;39.786;2023-08-31T09:06:09;6.65;;;3.10;;
49626;SDS011;35527;54.616;39.786;2023-08-31T09:09:12;6.97;;;2.97;;
49626;SDS011;35527;54.616;39.786;2023-08-31T09:12:17;5.70;;;2.80;;
49626;SDS011;35527;54.616;39.786;2023-08-31T09:15:21;6.13;;;2.88;;
49626;SDS011;35527;54.616;39.786;2023-08-31T09:18:24;4.88;;;2.90;;
49626;SDS011;35527;54.616;39.786;2023-08-31T09:21:38;6.88;;;3.03;;
49626;SDS011;35527;54.616;39.786;2023-08-31T09:24:46;4.88;;;2.97;;
49626;SDS011;35527;54.616;39.786;2023-08-31T09:27:49;5.75;;;2.92;;
49626;SDS011;35527;54.616;39.786;2023-08-31T09:31:03;6.65;;;3.15;;
49626;SDS011;35527;54.616;39.786;2023-08-31T09:34:15;7.40;;;2.83;;
49626;SDS011;35527;54.616;39.786;2023-08-31T09:37:18;7.28;;;2.85;;
49626;SDS011;35527;54.616;39.786;2023-08-31T09:40:22;7.20;;;2.90;;
49626;SDS011;35527;54.616;39.786;2023-08-31T09:43:26;7.50;;;2.92;;
49626;SDS011;35527;54.616;39.786;2023-08-31T09:46:33;11.43;;;3.20;;
49626;SDS011;35527;54.616;39.786;2023-08-31T09:49:36;8.43;;;3.30;;
49626;SDS011;35527;54.616;39.786;2023-08-31T09:52:40;7.53;;;2.97;;
49626;SDS011;35527;54.616;39.786;2023-08-31T09:55:47;7.32;;;3.13;;
49626;SDS011;35527;54.616;39.786;2023-08-31T09:58:56;6.88;;;3.35;;
49626;SDS011;35527;54.616;39.786;2023-08-31T10:02:00;7.30;;;3.17;;
49626;SDS011;35527;54.616;39.786;2023-08-31T10:05:04;11.75;;;3.22;;
49626;SDS011;35527;54.616;39.786;2023-08-31T10:08:09;6.93;;;3.15;;
49626;SDS011;35527;54.616;39.786;2023-08-31T10:11:14;9.82;;;3.17;;
49626;SDS011;35527;54.616;39.786;2023-08-31T10:14:20;5.28;;;2.95;;
49626;SDS011;35527;54.616;39.786;2023-08-31T10:17:27;5.57;;;2.92;;
49626;SDS011;35527;54.616;39.786;2023-08-31T10:20:31;7.03;;;3.15;;
49626;SDS011;35527;54.616;39.786;2023-08-31T10:23:44;7.30;;;3.65;;
49626;SDS011;35527;54.616;39.786;2023-08-31T10:26:47;10.02;;;4.00;;
49626;SDS011;35527;54.616;39.786;2023-08-31T10:29:50;8.73;;;3.60;;
49626;SDS011;35527;54.616;39.786;2023-08-31T10:36:14;8.43;;;3.22;;
49626;SDS011;35527;54.616;39.786;2023-08-31T10:39:19;7.15;;;3.35;;
49626;SDS011;35527;54.616;39.786;2023-08-31T10:42:23;10.00;;;3.40;;
49626;SDS011;35527;54.616;39.786;2023-08-31T10:45:26;6.78;;;2.97;;
49626;SDS011;35527;54.616;39.786;2023-08-31T10:48:35;6.85;;;3.08;;
49626;SDS011;35527;54.616;39.786;2023-08-31T10:51:56;7.90;;;3.30;;
49626;SDS011;35527;54.616;39.786;2023-08-31T10:55:00;6.13;;;3.33;;
49626;SDS011;35527;54.616;39.786;2023-08-31T10:58:11;6.45;;;3.15;;
49626;SDS011;35527;54.616;39.786;2023-08-31T11:01:15;8.30;;;3.50;;
49626;SDS011;35527;54.616;39.786;2023-08-31T11:08:12;10.32;;;3.78;;
49626;SDS011;35527;54.616;39.786;2023-08-31T11:11:19;5.63;;;3.22;;
49626;SDS011;35527;54.616;39.786;2023-08-31T11:14:22;8.70;;;3.50;;
49626;SDS011;35527;54.616;39.786;2023-08-31T11:17:27;6.13;;;3.45;;
49626;SDS011;35527;54.616;39.786;2023-08-31T11:20:33;8.95;;;3.60;;
49626;SDS011;35527;54.616;39.786;2023-08-31T11:23:36;5.32;;;3.13;;
49626;SDS011;35527;54.616;39.786;2023-08-31T11:26:39;7.13;;;3.40;;
49626;SDS011;35527;54.616;39.786;2023-08-31T11:29:42;7.57;;;3.92;;
49626;SDS011;35527;54.616;39.786;2023-08-31T11:35:52;9.35;;;3.28;;
49626;SDS011;35527;54.616;39.786;2023-08-31T11:38:56;6.28;;;3.58;;
49626;SDS011;35527;54.616;39.786;2023-08-31T11:41:58;7.20;;;4.07;;
49626;SDS011;35527;54.616;39.786;2023-08-31T11:45:02;9.23;;;4.25;;
49626;SDS011;35527;54.616;39.786;2023-08-31T11:48:09;9.25;;;3.80;;
49626;SDS011;35527;54.616;39.786;2023-08-31T11:51:12;8.90;;;3.70;;
49626;SDS011;35527;54.616;39.786;2023-08-31T11:54:16;9.98;;;3.97;;
49626;SDS011;35527;54.616;39.786;2023-08-31T11:57:26;6.70;;;3.70;;
49626;SDS011;35527;54.616;39.786;2023-08-31T12:00:31;6.85;;;3.83;;
49626;SDS011;35527;54.616;39.786;2023-08-31T12:03:43;7.72;;;3.90;;
49626;SDS011;35527;54.616;39.786;2023-08-31T12:06:51;7.50;;;3.67;;
49626;SDS011;35527;54.616;39.786;2023-08-31T12:10:03;6.32;;;3.50;;
49626;SDS011;35527;54.616;39.786;2023-08-31T12:13:09;6.93;;;3.50;;
49626;SDS011;35527;54.616;39.786;2023-08-31T12:16:12;6.50;;;3.50;;
49626;SDS011;35527;54.616;39.786;2023-08-31T12:19:37;9.00;;;3.42;;
49626;SDS011;35527;54.616;39.786;2023-08-31T12:22:45;7.95;;;3.40;;
49626;SDS011;35527;54.616;39.786;2023-08-31T12:25:48;7.05;;;3.38;;
49626;SDS011;35527;54.616;39.786;2023-08-31T12:28:51;14.07;;;4.23;;
49626;SDS011;35527;54.616;39.786;2023-08-31T12:31:56;8.77;;;3.90;;
49626;SDS011;35527;54.616;39.786;2023-08-31T12:34:59;10.57;;;4.10;;
49626;SDS011;35527;54.616;39.786;2023-08-31T12:38:01;7.88;;;3.90;;
49626;SDS011;35527;54.616;39.786;2023-08-31T12:41:04;6.63;;;3.80;;
49626;SDS011;35527;54.616;39.786;2023-08-31T12:44:09;6.75;;;3.72;;
49626;SDS011;35527;54.616;39.786;2023-08-31T12:47:14;6.38;;;3.40;;
49626;SDS011;35527;54.616;39.786;2023-08-31T12:50:17;7.18;;;3.53;;
49626;SDS011;35527;54.616;39.786;2023-08-31T12:53:21;8.57;;;3.60;;
49626;SDS011;35527;54.616;39.786;2023-08-31T12:56:26;10.55;;;4.20;;
49626;SDS011;35527;54.616;39.786;2023-08-31T12:59:31;9.98;;;3.90;;
49626;SDS011;35527;54.616;39.786;2023-08-31T13:02:33;7.47;;;3.70;;
49626;SDS011;35527;54.616;39.786;2023-08-31T13:05:39;10.00;;;4.05;;
49626;SDS011;35527;54.616;39.786;2023-08-31T13:08:46;7.47;;;3.97;;
49626;SDS011;35527;54.616;39.786;2023-08-31T13:11:50;9.07;;;3.72;;
49626;SDS011;35527;54.616;39.786;2023-08-31T13:14:52;9.10;;;4.15;;
49626;SDS011;35527;54.616;39.786;2023-08-31T13:17:55;6.65;;;3.20;;
49626;SDS011;35527;54.616;39.786;2023-08-31T13:21:01;7.97;;;3.40;;
49626;SDS011;35527;54.616;39.786;2023-08-31T13:24:04;9.63;;;3.50;;
49626;SDS011;35527;54.616;39.786;2023-08-31T13:27:08;6.90;;;3.40;;
49626;SDS011;35527;54.616;39.786;2023-08-31T13:30:12;6.47;;;3.35;;
49626;SDS011;35527;54.616;39.786;2023-08-31T13:33:20;6.78;;;3.67;;
49626;SDS011;35527;54.616;39.786;2023-08-31T13:36:22;5.72;;;3.53;;
49626;SDS011;35527;54.616;39.786;2023-08-31T13:39:25;7.28;;;3.17;;
49626;SDS011;35527;54.616;39.786;2023-08-31T13:42:33;9.20;;;3.78;;
49626;SDS011;35527;54.616;39.786;2023-08-31T13:45:37;7.75;;;3.45;;
49626;SDS011;35527;54.616;39.786;2023-08-31T13:48:39;10.50;;;3.47;;
49626;SDS011;35527;54.616;39.786;2023-08-31T13:51:42;7.22;;;3.35;;
49626;SDS011;35527;54.616;39.786;2023-08-31T13:54:50;9.40;;;3.60;;
49626;SDS011;35527;54.616;39.786;2023-08-31T13:57:55;8.23;;;3.60;;
49626;SDS011;35527;54.616;39.786;2023-08-31T14:01:00;8.77;;;3.95;;
49626;SDS011;35527;54.616;39.786;2023-08-31T14:04:05;7.00;;;3.47;;
49626;SDS011;35527;54.616;39.786;2023-08-31T14:07:08;8.15;;;3.67;;
49626;SDS011;35527;54.616;39.786;2023-08-31T14:10:11;9.00;;;3.90;;
49626;SDS011;35527;54.616;39.786;2023-08-31T14:13:18;7.28;;;3.70;;
49626;SDS011;35527;54.616;39.786;2023-08-31T14:16:20;9.48;;;3.92;;
49626;SDS011;35527;54.616;39.786;2023-08-31T14:19:25;8.48;;;3.53;;
49626;SDS011;35527;54.616;39.786;2023-08-31T14:22:28;7.82;;;3.47;;
49626;SDS011;35527;54.616;39.786;2023-08-31T14:25:36;10.65;;;3.65;;
49626;SDS011;35527;54.616;39.786;2023-08-31T14:28:42;7.72;;;3.78;;
49626;SDS011;35527;54.616;39.786;2023-08-31T14:31:49;6.13;;;3.38;;
49626;SDS011;35527;54.616;39.786;2023-08-31T14:34:56;8.73;;;4.03;;
49626;SDS011;35527;54.616;39.786;2023-08-31T14:38:01;7.70;;;3.63;;
49626;SDS011;35527;54.616;39.786;2023-08-31T14:41:03;10.65;;;3.97;;
49626;SDS011;35527;54.616;39.786;2023-08-31T14:44:12;6.72;;;3.30;;
49626;SDS011;35527;54.616;39.786;2023-08-31T14:47:16;9.88;;;4.20;;
49626;SDS011;35527;54.616;39.786;2023-08-31T14:50:20;8.47;;;3.87;;
49626;SDS011;35527;54.616;39.786;2023-08-31T14:53:23;8.23;;;3.85;;
49626;SDS011;35527;54.616;39.786;2023-08-31T14:56:27;7.10;;;3.38;;
49626;SDS011;35527;54.616;39.786;2023-08-31T14:59:32;7.40;;;3.95;;
49626;SDS011;35527;54.616;39.786;2023-08-31T15:02:35;9.50;;;4.68;;
49626;SDS011;35527;54.616;39.786;2023-08-31T15:05:38;7.97;;;5.00;;
49626;SDS011;35527;54.616;39.786;2023-08-31T15:08:45;10.07;;;5.65;;
49626;SDS011;35527;54.616;39.786;2023-08-31T15:11:47;11.63;;;5.88;;
49626;SDS011;35527;54.616;39.786;2023-08-31T15:14:51;9.70;;;6.28;;
49626;SDS011;35527;54.616;39.786;2023-08-31T15:17:53;11.82;;;5.20;;
49626;SDS011;35527;54.616;39.786;2023-08-31T15:21:00;10.40;;;5.88;;
49626;SDS011;35527;54.616;39.786;2023-08-31T15:24:03;8.93;;;4.43;;
49626;SDS011;35527;54.616;39.786;2023-08-31T15:27:09;10.90;;;5.50;;
49626;SDS011;35527;54.616;39.786;2023-08-31T15:30:12;10.00;;;4.97;;
49626;SDS011;35527;54.616;39.786;2023-08-31T15:33:17;9.32;;;4.82;;
49626;SDS011;35527;54.616;39.786;2023-08-31T15:36:21;8.82;;;4.63;;
49626;SDS011;35527;54.616;39.786;2023-08-31T15:39:25;9.00;;;4.47;;
49626;SDS011;35527;54.616;39.786;2023-08-31T15:42:30;10.35;;;4.80;;
49626;SDS011;35527;54.616;39.786;2023-08-31T15:45:33;9.40;;;4.43;;
49626;SDS011;35527;54.616;39.786;2023-08-31T15:48:37;6.97;;;3.77;;
49626;SDS011;35527;54.616;39.786;2023-08-31T15:51:39;7.60;;;4.70;;
49626;SDS011;35527;54.616;39.786;2023-08-31T15:54:42;7.70;;;3.88;;
49626;SDS011;35527;54.616;39.786;2023-08-31T15:57:49;8.20;;;4.40;;
49626;SDS011;35527;54.616;39.786;2023-08-31T16:00:51;10.38;;;4.80;;
49626;SDS011;35527;54.616;39.786;2023-08-31T16:04:00;9.20;;;5.45;;
49626;SDS011;35527;54.616;39.786;2023-08-31T16:07:03;10.52;;;5.53;;
49626;SDS011;35527;54.616;39.786;2023-08-31T16:10:10;11.10;;;5.80;;
49626;SDS011;35527;54.616;39.786;2023-08-31T16:13:14;12.20;;;7.67;;
49626;SDS011;35527;54.616;39.786;2023-08-31T16:16:16;11.70;;;7.20;;
49626;SDS011;35527;54.616;39.786;2023-08-31T16:19:19;17.75;;;10.00;;
49626;SDS011;35527;54.616;39.786;2023-08-31T16:22:23;13.57;;;8.98;;
49626;SDS011;35527;54.616;39.786;2023-08-31T16:25:29;11.75;;;7.13;;
49626;SDS011;35527;54.616;39.786;2023-08-31T16:28:35;11.98;;;7.72;;
49626;SDS011;35527;54.616;39.786;2023-08-31T16:31:40;10.30;;;6.05;;
49626;SDS011;35527;54.616;39.786;2023-08-31T16:34:44;11.00;;;5.82;;
49626;SDS011;35527;54.616;39.786;2023-08-31T16:37:49;9.98;;;5.22;;
49626;SDS011;35527;54.616;39.786;2023-08-31T16:40:53;9.27;;;5.28;;
49626;SDS011;35527;54.616;39.786;2023-08-31T16:43:56;8.73;;;5.00;;
49626;SDS011;35527;54.616;39.786;2023-08-31T16:47:00;9.43;;;5.72;;
49626;SDS011;35527;54.616;39.786;2023-08-31T16:50:04;9.13;;;5.38;;
49626;SDS011;35527;54.616;39.786;2023-08-31T16:53:07;9.23;;;5.65;;
49626;SDS011;35527;54.616;39.786;2023-08-31T16:56:10;7.95;;;5.05;;
49626;SDS011;35527;54.616;39.786;2023-08-31T16:59:15;8.85;;;4.93;;
49626;SDS011;35527;54.616;39.786;2023-08-31T17:02:18;8.88;;;4.38;;
49626;SDS011;35527;54.616;39.786;2023-08-31T17:05:22;9.82;;;4.60;;
49626;SDS011;35527;54.616;39.786;2023-08-31T17:08:25;8.93;;;4.38;;
49626;SDS011;35527;54.616;39.786;2023-08-31T17:11:32;10.43;;;4.60;;
49626;SDS011;35527;54.616;39.786;2023-08-31T17:14:36;7.88;;;4.20;;
49626;SDS011;35527;54.616;39.786;2023-08-31T17:17:44;6.60;;;4.20;;
49626;SDS011;35527;54.616;39.786;2023-08-31T17:20:51;6.43;;;4.40;;
49626;SDS011;35527;54.616;39.786;2023-08-31T17:23:56;8.05;;;4.22;;
49626;SDS011;35527;54.616;39.786;2023-08-31T17:26:59;9.50;;;4.50;;
49626;SDS011;35527;54.616;39.786;2023-08-31T17:33:10;8.52;;;4.50;;
49626;SDS011;35527;54.616;39.786;2023-08-31T17:36:17;7.85;;;4.45;;
49626;SDS011;35527;54.616;39.786;2023-08-31T17:39:20;9.05;;;4.80;;
49626;SDS011;35527;54.616;39.786;2023-08-31T17:42:26;7.38;;;4.22;;
49626;SDS011;35527;54.616;39.786;2023-08-31T17:45:28;9.55;;;4.38;;
49626;SDS011;35527;54.616;39.786;2023-08-31T17:48:36;8.32;;;4.80;;
49626;SDS011;35527;54.616;39.786;2023-08-31T17:51:41;6.65;;;3.50;;
49626;SDS011;35527;54.616;39.786;2023-08-31T17:54:43;9.27;;;3.85;;
49626;SDS011;35527;54.616;39.786;2023-08-31T17:57:47;6.88;;;4.10;;
49626;SDS011;35527;54.616;39.786;2023-08-31T18:00:50;9.05;;;4.07;;
49626;SDS011;35527;54.616;39.786;2023-08-31T18:03:53;6.78;;;4.45;;
49626;SDS011;35527;54.616;39.786;2023-08-31T18:06:56;11.63;;;4.80;;
49626;SDS011;35527;54.616;39.786;2023-08-31T18:09:59;12.07;;;4.25;;
49626;SDS011;35527;54.616;39.786;2023-08-31T18:13:02;8.73;;;4.65;;
49626;SDS011;35527;54.616;39.786;2023-08-31T18:16:07;10.35;;;4.40;;
49626;SDS011;35527;54.616;39.786;2023-08-31T18:19:11;10.65;;;4.20;;
49626;SDS011;35527;54.616;39.786;2023-08-31T18:22:14;6.97;;;4.45;;
49626;SDS011;35527;54.616;39.786;2023-08-31T18:25:20;10.68;;;4.43;;
49626;SDS011;35527;54.616;39.786;2023-08-31T18:28:23;8.55;;;4.32;;
49626;SDS011;35527;54.616;39.786;2023-08-31T18:31:26;9.30;;;4.65;;
49626;SDS011;35527;54.616;39.786;2023-08-31T18:34:29;10.07;;;4.30;;
49626;SDS011;35527;54.616;39.786;2023-08-31T18:37:37;11.45;;;4.35;;